Time;durP1;ratioP1;P1;durP2;ratioP2;P2;SDS_P1;SDS_P2;PMS_P1;PMS_P2;Temp;Humidity;BMP_temperature;BMP_pressure;BME280_temperature;BME280_humidity;BME280_pressure;Samples;Min_cycle;Max_cycle;Signal;HPM_P1;HPM_P2
2021/04/27 00:00:36;;;;;;;1999.90;999.90;;;7.80;89.60;;;;;;5005386;28;20959;-87
2021/04/27 00:03:09;;;;;;;1999.90;999.90;;;7.90;87.70;;;;;;5004945;28;20225;-87
2021/04/27 00:05:38;;;;;;;1999.90;999.90;;;7.90;89.50;;;;;;5004925;28;20234;-86
2021/04/27 00:08:07;;;;;;;1999.90;999.90;;;7.90;88.80;;;;;;5006137;28;20596;-87
2021/04/27 00:10:33;;;;;;;1999.90;999.90;;;7.90;88.10;;;;;;5004693;28;20597;-87
2021/04/27 00:13:05;;;;;;;1999.90;999.90;;;7.80;91.70;;;;;;5023274;28;20165;-86
2021/04/27 00:15:36;;;;;;;1999.90;999.90;;;7.70;92.00;;;;;;5005946;28;20491;-87
2021/04/27 00:18:02;;;;;;;1999.90;999.90;;;7.60;93.80;;;;;;5005255;28;20194;-87
2021/04/27 00:20:33;;;;;;;1999.90;999.90;;;7.50;94.80;;;;;;5005227;28;20192;-87
2021/04/27 00:23:01;;;;;;;1999.90;999.90;;;7.50;95.80;;;;;;5023280;28;20195;-86
2021/04/27 00:25:27;;;;;;;1999.90;999.90;;;7.40;96.00;;;;;;5023054;28;20526;-86
2021/04/27 00:27:55;;;;;;;1999.90;999.90;;;7.40;97.30;;;;;;5004972;28;20189;-86
2021/04/27 00:30:22;;;;;;;1999.90;999.90;;;7.40;97.10;;;;;;5022838;28;20404;-86
2021/04/27 00:32:49;;;;;;;1999.90;999.90;;;7.40;97.50;;;;;;5004913;28;20162;-86
2021/04/27 00:35:16;;;;;;;1999.90;999.90;;;7.30;97.10;;;;;;5022658;28;20161;-86
2021/04/27 00:37:45;;;;;;;1999.90;999.90;;;7.30;97.80;;;;;;5010354;28;20182;-87
2021/04/27 00:40:13;;;;;;;1999.90;999.90;;;7.20;98.60;;;;;;5007665;28;20162;-87
2021/04/27 00:42:52;;;;;;;1999.90;999.90;;;7.20;98.00;;;;;;5007629;28;20614;-87
2021/04/27 00:45:21;;;;;;;1999.90;999.90;;;7.30;97.60;;;;;;5024382;28;20213;-87
2021/04/27 00:47:47;;;;;;;1999.90;999.90;;;7.20;98.40;;;;;;5023877;28;20554;-87
2021/04/27 00:50:16;;;;;;;1999.90;999.90;;;7.20;97.70;;;;;;5024231;28;20172;-87
2021/04/27 00:52:44;;;;;;;1999.90;999.90;;;7.20;98.20;;;;;;5005868;28;20174;-87
2021/04/27 00:55:13;;;;;;;1999.90;999.90;;;7.20;98.30;;;;;;5006461;28;20181;-87
2021/04/27 00:57:39;;;;;;;1999.90;999.90;;;7.20;98.00;;;;;;5007050;28;20213;-87
2021/04/27 01:00:11;;;;;;;1999.90;999.90;;;7.10;98.90;;;;;;5007149;28;20621;-87
2021/04/27 01:02:38;;;;;;;1999.90;999.90;;;7.20;98.00;;;;;;5023293;28;20166;-87
2021/04/27 01:05:07;;;;;;;1999.90;999.90;;;7.30;95.90;;;;;;5006215;28;20228;-87
2021/04/27 01:07:58;;;;;;;1999.90;999.90;;;7.30;90.10;;;;;;5006067;28;20190;-87
2021/04/27 01:10:33;;;;;;;1999.90;999.90;;;7.40;85.90;;;;;;4992525;28;20185;-87
2021/04/27 01:13:07;;;;;;;1999.90;999.90;;;7.50;68.40;;;;;;5024292;28;20576;-87
2021/04/27 01:15:39;;;;;;;1999.90;999.90;;;7.50;57.60;;;;;;5006093;28;20190;-87
2021/04/27 01:18:15;;;;;;;1999.90;999.90;;;7.60;60.50;;;;;;5006664;28;20225;-87
2021/04/27 01:20:43;;;;;;;1999.90;999.90;;;7.60;51.70;;;;;;5006229;28;20184;-87
2021/04/27 01:23:28;;;;;;;1999.90;999.90;;;7.60;40.80;;;;;;5006441;28;20212;-87
2021/04/27 01:26:23;;;;;;;1999.90;999.90;;;7.60;35.20;;;;;;5005375;28;20691;-87
2021/04/27 01:28:50;;;;;;;1999.90;999.90;;;7.60;30.90;;;;;;5003456;28;20161;-87
2021/04/27 01:31:23;;;;;;;1999.90;999.90;;;7.70;29.10;;;;;;5020868;28;20166;-86
2021/04/27 01:33:52;;;;;;;1999.90;999.90;;;7.60;26.40;;;;;;5003884;28;20514;-86
2021/04/27 01:36:24;;;;;;;1999.90;999.90;;;7.60;25.30;;;;;;5003451;28;20732;-85
2021/04/27 01:38:56;;;;;;;1999.90;999.90;;;7.60;22.70;;;;;;5021291;28;20161;-86
2021/04/27 01:41:22;;;;;;;1999.90;999.90;;;7.70;22.80;;;;;;5004083;28;20174;-86
2021/04/27 01:43:51;;;;;;;1999.90;999.90;;;7.60;20.90;;;;;;5004235;28;20194;-86
2021/04/27 01:46:18;;;;;;;1999.90;999.90;;;7.70;21.30;;;;;;5003608;28;20196;-86
2021/04/27 01:48:47;;;;;;;1999.90;999.90;;;7.70;21.20;;;;;;5003612;28;20268;-86
2021/04/27 01:51:25;;;;;;;1999.90;999.90;;;7.60;20.10;;;;;;5021686;28;20633;-86
2021/04/27 01:53:51;;;;;;;1999.90;999.90;;;7.60;20.20;;;;;;5021956;28;20151;-86
2021/04/27 01:56:21;;;;;;;1999.90;999.90;;;7.60;19.10;;;;;;5021882;28;20197;-86
2021/04/27 01:58:48;;;;;;;1999.90;999.90;;;7.50;18.00;;;;;;5004099;28;20181;-86
2021/04/27 02:01:26;;;;;;;1999.90;999.90;;;7.50;18.70;;;;;;5006429;28;20193;-86
2021/04/27 02:03:52;;;;;;;1999.90;999.90;;;7.50;16.80;;;;;;5007043;28;20209;-87
2021/04/27 02:06:44;;;;;;;1999.90;999.90;;;7.50;16.20;;;;;;5006380;28;20174;-85
2021/04/27 02:09:25;;;;;;;1999.90;999.90;;;7.50;16.30;;;;;;4997770;28;20202;-86
2021/04/27 02:12:03;;;;;;;1999.90;999.90;;;7.50;16.20;;;;;;5006920;28;20165;-86
2021/04/27 02:14:29;;;;;;;1999.90;999.90;;;7.40;16.30;;;;;;5030007;23;20252;-80
2021/04/27 02:17:24;;;;;;;1999.90;999.90;;;7.40;17.00;;;;;;5041124;28;20181;-80
2021/04/27 02:19:52;;;;;;;1999.90;999.90;;;7.40;16.20;;;;;;5039356;28;20157;-80
2021/04/27 02:22:18;;;;;;;1999.90;999.90;;;7.40;15.80;;;;;;5041176;28;20204;-80
2021/04/27 02:24:44;;;;;;;1999.90;999.90;;;7.30;15.80;;;;;;5041239;28;20538;-80
2021/04/27 02:27:12;;;;;;;1999.90;999.90;;;7.30;16.80;;;;;;5040438;28;20239;-80
2021/04/27 02:29:39;;;;;;;1999.90;999.90;;;7.30;17.20;;;;;;5041092;28;20411;-80
2021/04/27 02:32:06;;;;;;;1999.90;999.90;;;7.30;17.00;;;;;;5040557;28;20173;-80
2021/04/27 02:34:31;;;;;;;1999.90;999.90;;;7.30;15.90;;;;;;5040506;28;20172;-80
2021/04/27 02:36:57;;;;;;;1999.90;999.90;;;7.30;17.10;;;;;;5040945;28;20648;-80
2021/04/27 02:39:23;;;;;;;1999.90;999.90;;;7.30;16.50;;;;;;5040729;28;20404;-80
2021/04/27 02:41:50;;;;;;;1999.90;999.90;;;7.30;16.60;;;;;;5040887;28;20168;-80
2021/04/27 02:44:16;;;;;;;1999.90;999.90;;;7.30;16.60;;;;;;5039680;28;20221;-80
2021/04/27 02:46:43;;;;;;;1999.90;999.90;;;7.30;16.40;;;;;;5040897;28;20707;-80
2021/04/27 02:49:10;;;;;;;1999.90;999.90;;;7.30;16.00;;;;;;5040026;28;20176;-80
2021/04/27 02:51:36;;;;;;;1999.90;999.90;;;7.20;17.80;;;;;;5040876;28;20173;-80
2021/04/27 02:54:03;;;;;;;1999.90;999.90;;;7.20;17.00;;;;;;5040677;28;20168;-80
2021/04/27 02:56:28;;;;;;;1999.90;999.90;;;7.10;17.70;;;;;;5040815;28;20223;-80
2021/04/27 02:58:54;;;;;;;1999.90;999.90;;;7.10;17.80;;;;;;5041113;28;20165;-80
2021/04/27 03:01:20;;;;;;;1999.90;999.90;;;7.10;17.60;;;;;;5041404;28;20170;-80
2021/04/27 03:03:46;;;;;;;1999.90;999.90;;;7.10;19.20;;;;;;5040313;28;20199;-80
2021/04/27 03:06:12;;;;;;;1999.90;999.90;;;7.10;19.10;;;;;;5040797;28;20637;-80
2021/04/27 03:08:38;;;;;;;1999.90;999.90;;;7.10;21.50;;;;;;5040345;28;20216;-80
2021/04/27 03:11:06;;;;;;;1999.90;999.90;;;7.10;20.30;;;;;;5040111;28;20624;-80
2021/04/27 03:13:32;;;;;;;1999.90;999.90;;;7.00;19.90;;;;;;5040923;28;20528;-80
2021/04/27 03:15:57;;;;;;;1999.90;999.90;;;7.00;20.80;;;;;;5041380;28;20238;-80
2021/04/27 03:18:23;;;;;;;1999.90;999.90;;;6.90;20.40;;;;;;5040302;28;20239;-80
2021/04/27 03:20:49;;;;;;;1999.90;999.90;;;6.90;21.10;;;;;;5041154;28;20172;-80
2021/04/27 03:23:15;;;;;;;1999.90;999.90;;;7.00;21.80;;;;;;5039056;28;20193;-80
2021/04/27 03:25:41;;;;;;;1999.90;999.90;;;7.00;22.90;;;;;;5040147;28;20173;-80
2021/04/27 03:28:08;;;;;;;1999.90;999.90;;;7.00;23.00;;;;;;5040184;28;20177;-80
2021/04/27 03:30:35;;;;;;;1999.90;999.90;;;6.90;22.90;;;;;;5039045;28;20540;-80
2021/04/27 03:33:01;;;;;;;1999.90;999.90;;;7.00;23.50;;;;;;5039055;28;20161;-80
2021/04/27 03:35:27;;;;;;;1999.90;999.90;;;6.90;23.30;;;;;;5038717;28;20172;-80
2021/04/27 03:37:54;;;;;;;1999.90;999.90;;;6.90;24.10;;;;;;5039922;28;20681;-80
2021/04/27 03:40:21;;;;;;;1999.90;999.90;;;6.80;23.90;;;;;;5040439;28;20229;-80
2021/04/27 03:42:46;;;;;;;1999.90;999.90;;;6.80;24.80;;;;;;5038771;28;20165;-80
2021/04/27 03:45:18;;;;;;;1999.90;999.90;;;6.90;25.90;;;;;;5038603;28;20169;-80
2021/04/27 03:47:45;;;;;;;1999.90;999.90;;;6.70;24.70;;;;;;5039795;28;20545;-80
2021/04/27 03:50:19;;;;;;;1999.90;999.90;;;6.70;26.80;;;;;;5040112;28;20228;-80
2021/04/27 03:52:45;;;;;;;1999.90;999.90;;;6.70;27.20;;;;;;5040371;28;20149;-79
2021/04/27 03:55:12;;;;;;;1999.90;999.90;;;6.70;27.90;;;;;;5040151;28;20169;-80
2021/04/27 03:57:38;;;;;;;1999.90;999.90;;;6.70;30.50;;;;;;5038770;28;20664;-80
2021/04/27 04:00:06;;;;;;;1999.90;999.90;;;6.70;32.10;;;;;;5040134;28;20161;-80
2021/04/27 04:02:32;;;;;;;1999.90;999.90;;;6.80;29.20;;;;;;5038377;28;20927;-79
2021/04/27 04:04:58;;;;;;;1999.90;999.90;;;6.70;28.40;;;;;;5038571;28;20199;-80
2021/04/27 04:07:24;;;;;;;1999.90;999.90;;;6.70;30.40;;;;;;5037906;28;20799;-80
2021/04/27 04:09:50;;;;;;;1999.90;999.90;;;6.60;27.50;;;;;;5039634;28;20158;-80
2021/04/27 04:12:16;;;;;;;1999.90;999.90;;;6.60;28.50;;;;;;5039448;28;20407;-79
2021/04/27 04:14:41;;;;;;;1999.90;999.90;;;6.50;29.70;;;;;;5038539;28;20185;-80
2021/04/27 04:17:07;;;;;;;1999.90;999.90;;;6.50;30.90;;;;;;5039410;28;20189;-80
2021/04/27 04:19:33;;;;;;;1999.90;999.90;;;6.50;28.90;;;;;;5039061;28;20173;-80
2021/04/27 04:21:59;;;;;;;1999.90;999.90;;;6.50;28.60;;;;;;5039380;28;20557;-80
2021/04/27 04:24:25;;;;;;;1999.90;999.90;;;6.50;27.60;;;;;;5038357;28;20247;-79
2021/04/27 04:26:50;;;;;;;1999.90;999.90;;;6.60;26.00;;;;;;5038591;28;20185;-80
2021/04/27 04:29:16;;;;;;;1999.90;999.90;;;6.60;28.20;;;;;;5038628;28;20173;-80
2021/04/27 04:31:42;;;;;;;1999.90;999.90;;;6.60;28.00;;;;;;5039558;28;20180;-79
2021/04/27 04:34:07;;;;;;;1999.90;999.90;;;6.60;28.90;;;;;;5039373;28;20180;-80
2021/04/27 04:36:33;;;;;;;1999.90;999.90;;;6.60;27.70;;;;;;5037687;28;20169;-80
2021/04/27 04:38:59;;;;;;;1999.90;999.90;;;6.60;27.10;;;;;;5039296;28;20176;-80
2021/04/27 04:41:24;;;;;;;1999.90;999.90;;;6.60;26.80;;;;;;5039002;28;20169;-80
2021/04/27 04:43:50;;;;;;;1999.90;999.90;;;6.60;26.10;;;;;;5038896;28;20197;-80
2021/04/27 04:46:16;;;;;;;1999.90;999.90;;;6.60;26.30;;;;;;5039631;28;20248;-80
2021/04/27 04:48:42;;;;;;;1999.90;999.90;;;6.60;25.60;;;;;;5039025;28;20544;-79
2021/04/27 04:51:08;;;;;;;1999.90;999.90;;;6.50;24.70;;;;;;5039203;28;20218;-80
2021/04/27 04:53:33;;;;;;;1999.90;999.90;;;6.60;25.40;;;;;;5039010;28;20167;-79
2021/04/27 04:55:59;;;;;;;1999.90;999.90;;;6.60;25.60;;;;;;5039146;28;20165;-80
2021/04/27 04:58:25;;;;;;;1999.90;999.90;;;6.60;24.50;;;;;;5039138;28;20253;-80
2021/04/27 05:00:51;;;;;;;1999.90;999.90;;;6.60;23.00;;;;;;5037411;28;20606;-80
2021/04/27 05:03:16;;;;;;;1999.90;999.90;;;6.60;23.10;;;;;;5037941;28;20201;-80
2021/04/27 05:05:43;;;;;;;1999.90;999.90;;;6.70;22.90;;;;;;5038030;28;20199;-80
2021/04/27 05:08:12;;;;;;;1999.90;999.90;;;6.60;21.50;;;;;;5038264;28;20219;-79
2021/04/27 05:10:39;;;;;;;1999.90;999.90;;;6.60;22.00;;;;;;5039343;28;20176;-80
2021/04/27 05:13:05;;;;;;;1999.90;999.90;;;6.70;22.30;;;;;;5038797;28;20153;-80
2021/04/27 05:15:31;;;;;;;1999.90;999.90;;;6.70;20.70;;;;;;5038742;28;20185;-80
2021/04/27 05:17:57;;;;;;;1999.90;999.90;;;6.70;20.00;;;;;;5037725;28;20265;-80
2021/04/27 05:20:24;;;;;;;1999.90;999.90;;;6.70;19.00;;;;;;5039079;28;20400;-80
2021/04/27 05:22:50;;;;;;;1999.90;999.90;;;6.80;19.10;;;;;;5039383;28;20528;-80
2021/04/27 05:25:17;;;;;;;1999.90;999.90;;;6.80;18.10;;;;;;5039404;28;20192;-80
2021/04/27 05:27:45;;;;;;;1999.90;999.90;;;6.80;18.00;;;;;;5038622;28;20685;-80
2021/04/27 05:30:12;;;;;;;1999.90;999.90;;;6.80;17.80;;;;;;5039693;28;20169;-79
2021/04/27 05:32:38;;;;;;;1999.90;999.90;;;6.90;17.20;;;;;;5039243;28;20240;-80
2021/04/27 05:35:05;;;;;;;1999.90;999.90;;;7.00;18.00;;;;;;5041000;28;20157;-80
2021/04/27 05:37:31;;;;;;;1999.90;999.90;;;7.00;17.80;;;;;;5044109;28;20830;-80
2021/04/27 05:39:57;;;;;;;1999.90;999.90;;;7.00;16.90;;;;;;5043175;28;20166;-80
2021/04/27 05:42:23;;;;;;;1999.90;999.90;;;7.00;17.70;;;;;;5042098;28;20165;-80
2021/04/27 05:44:48;;;;;;;1999.90;999.90;;;7.10;18.50;;;;;;5042141;28;20185;-79
2021/04/27 05:47:14;;;;;;;1999.90;999.90;;;7.20;15.90;;;;;;5041101;28;20234;-80
2021/04/27 05:49:40;;;;;;;1999.90;999.90;;;7.20;14.50;;;;;;5041857;28;20176;-80
2021/04/27 05:52:07;;;;;;;1999.90;999.90;;;7.20;15.50;;;;;;5044686;28;20252;-79
2021/04/27 05:54:33;;;;;;;1999.90;999.90;;;7.20;13.90;;;;;;5042688;28;20400;-80
2021/04/27 05:57:00;;;;;;;1999.90;999.90;;;7.30;13.80;;;;;;5044543;28;20204;-80
2021/04/27 05:59:25;;;;;;;1999.90;999.90;;;7.30;12.80;;;;;;5042008;28;20176;-79
2021/04/27 06:01:51;;;;;;;1999.90;999.90;;;7.30;13.40;;;;;;5043996;28;20252;-79
2021/04/27 06:04:18;;;;;;;1999.90;999.90;;;7.40;13.90;;;;;;5043565;28;20474;-80
2021/04/27 06:06:43;;;;;;;1999.90;999.90;;;7.50;12.30;;;;;;5041404;28;20212;-80
2021/04/27 06:09:09;;;;;;;1999.90;999.90;;;7.60;12.70;;;;;;5041578;28;20165;-80
2021/04/27 06:11:36;;;;;;;1999.90;999.90;;;7.60;11.30;;;;;;5041005;28;20165;-80
2021/04/27 06:14:03;;;;;;;1999.90;999.90;;;7.60;10.10;;;;;;5040328;28;20310;-79
2021/04/27 06:16:29;;;;;;;1999.90;999.90;;;7.70;10.60;;;;;;5040606;28;20177;-79
2021/04/27 06:18:55;;;;;;;1999.90;999.90;;;7.70;10.00;;;;;;5041021;28;20227;-80
2021/04/27 06:21:21;;;;;;;1999.90;999.90;;;7.80;10.20;;;;;;5040339;28;20641;-80
2021/04/27 06:23:46;;;;;;;1999.90;999.90;;;7.80;9.70;;;;;;5039305;28;20530;-80
2021/04/27 06:26:12;;;;;;;1999.90;999.90;;;7.80;9.90;;;;;;5039632;28;20416;-80
2021/04/27 06:28:38;;;;;;;1999.90;999.90;;;7.90;8.70;;;;;;5040546;28;20208;-80
2021/04/27 06:31:04;;;;;;;1999.90;999.90;;;7.90;9.10;;;;;;5039576;28;20161;-80
2021/04/27 06:33:30;;;;;;;1999.90;999.90;;;8.10;9.30;;;;;;5039259;28;20170;-80
2021/04/27 06:35:56;;;;;;;1999.90;999.90;;;8.10;8.10;;;;;;5040788;28;20419;-79
2021/04/27 06:38:22;;;;;;;1999.90;999.90;;;8.20;7.20;;;;;;5040288;28;20196;-79
2021/04/27 06:40:51;;;;;;;1999.90;999.90;;;8.20;7.10;;;;;;5041326;28;20161;-79
2021/04/27 06:43:19;;;;;;;1999.90;999.90;;;8.30;5.10;;;;;;5041164;28;20686;-79
2021/04/27 06:45:45;;;;;;;1999.90;999.90;;;8.30;4.60;;;;;;5041232;28;20165;-79
2021/04/27 06:48:11;;;;;;;1999.90;999.90;;;8.30;4.90;;;;;;5039947;28;20185;-79
2021/04/27 06:50:39;;;;;;;1999.90;999.90;;;8.30;5.00;;;;;;5042086;28;20161;-78
2021/04/27 06:53:05;;;;;;;1999.90;999.90;;;8.30;4.00;;;;;;5040304;28;20192;-78
2021/04/27 06:55:31;;;;;;;1999.90;999.90;;;8.40;4.60;;;;;;5040264;28;20625;-79
2021/04/27 06:58:14;;;;;;;1999.90;999.90;;;8.50;5.10;;;;;;5039961;28;20560;-79
2021/04/27 07:00:39;;;;;;;1999.90;999.90;;;8.50;4.50;;;;;;5040925;28;20169;-79
2021/04/27 07:03:05;;;;;;;1999.90;999.90;;;8.60;5.40;;;;;;5038731;28;20220;-79
2021/04/27 07:05:31;;;;;;;1999.90;999.90;;;8.70;3.80;;;;;;5040092;28;20165;-79
2021/04/27 07:07:57;;;;;;;1999.90;999.90;;;8.80;4.20;;;;;;5040719;28;20190;-78
2021/04/27 07:10:24;;;;;;;1999.90;999.90;;;8.80;3.30;;;;;;5041362;28;20165;-79
2021/04/27 07:12:49;;;;;;;1999.90;999.90;;;8.90;3.10;;;;;;5039463;28;20165;-79
2021/04/27 07:15:16;;;;;;;1999.90;999.90;;;8.80;3.50;;;;;;5038737;28;20192;-79
2021/04/27 07:17:42;;;;;;;1999.90;999.90;;;8.90;4.40;;;;;;5040863;28;20488;-79
2021/04/27 07:20:09;;;;;;;1999.90;999.90;;;9.00;2.50;;;;;;5041561;28;20184;-79
2021/04/27 07:22:34;;;;;;;1999.90;999.90;;;9.00;2.00;;;;;;5041778;28;20408;-79
2021/04/27 07:25:00;;;;;;;1999.90;999.90;;;9.00;2.50;;;;;;5041385;28;20613;-79
2021/04/27 07:27:26;;;;;;;1999.90;999.90;;;9.10;2.30;;;;;;5041119;28;20181;-79
2021/04/27 07:29:52;;;;;;;1999.90;999.90;;;9.10;2.00;;;;;;5040593;28;20207;-79
2021/04/27 07:32:17;;;;;;;1999.90;999.90;;;9.20;1.70;;;;;;5039966;28;20910;-78
2021/04/27 07:34:43;;;;;;;1999.90;999.90;;;9.20;1.60;;;;;;5041154;28;20169;-77
2021/04/27 07:37:09;;;;;;;1999.90;999.90;;;9.20;1.00;;;;;;5041122;28;20189;-79
2021/04/27 07:39:35;;;;;;;1999.90;999.90;;;9.30;1.00;;;;;;5041204;28;20187;-79
2021/04/27 07:42:01;;;;;;;1999.90;999.90;;;9.40;1.00;;;;;;5038886;28;20172;-79
2021/04/27 07:44:27;;;;;;;1999.90;999.90;;;9.50;1.00;;;;;;5039492;28;20448;-80
2021/04/27 07:46:53;;;;;;;1999.90;999.90;;;9.60;1.00;;;;;;5039870;28;20184;-80
2021/04/27 07:49:19;;;;;;;1999.90;999.90;;;9.60;1.20;;;;;;5039177;28;20440;-79
2021/04/27 07:51:45;;;;;;;1999.90;999.90;;;9.70;1.00;;;;;;5039338;28;20657;-80
2021/04/27 07:54:11;;;;;;;1999.90;999.90;;;9.80;1.00;;;;;;5039206;28;20165;-79
2021/04/27 07:56:36;;;;;;;1999.90;999.90;;;9.80;1.00;;;;;;5039027;28;20668;-79
2021/04/27 07:59:04;;;;;;;1999.90;999.90;;;9.90;1.00;;;;;;5039034;28;20493;-79
2021/04/27 08:01:35;;;;;;;1999.90;999.90;;;10.00;1.00;;;;;;5039041;28;20188;-78
2021/04/27 08:04:01;;;;;;;1999.90;999.90;;;10.10;1.00;;;;;;5038673;28;20216;-79
2021/04/27 08:06:27;;;;;;;1999.90;999.90;;;10.10;1.00;;;;;;5040097;28;20165;-78
2021/04/27 08:08:52;;;;;;;1999.90;999.90;;;10.10;1.00;;;;;;5039345;28;20166;-79
2021/04/27 08:11:18;;;;;;;1999.90;999.90;;;10.10;1.00;;;;;;5041291;28;20165;-78
2021/04/27 09:32:48;;;;;;;1999.90;999.90;;;12.20;1.00;;;;;;5022669;28;20200;-85
2021/04/27 09:39:01;;;;;;;1999.90;999.90;;;12.50;1.00;;;;;;5017626;28;20229;-84
2021/04/27 09:52:46;;;;;;;1999.90;999.90;;;12.90;1.00;;;;;;4904138;29;20181;-85
2021/04/27 09:56:30;;;;;;;;;;;;;;;;;;;;;
2021/04/27 10:14:01;;;;;;;1999.90;999.90;;;14.00;1.00;;;;;;4959952;29;20262;-86
2021/04/27 10:16:48;;;;;;;1999.90;999.90;;;14.00;1.00;;;;;;4960036;28;20651;-85
2021/04/27 10:19:39;;;;;;;1999.90;999.90;;;13.90;1.00;;;;;;5012466;28;20181;-86
2021/04/27 10:25:45;;;;;;;1999.90;999.90;;;14.40;1.00;;;;;;4982660;28;20705;-86
2021/04/27 10:35:42;;;;;;;1999.90;999.90;;;15.00;1.00;;;;;;5042168;28;20436;-86
2021/04/27 10:38:21;;;;;;;1999.90;999.90;;;15.50;1.00;;;;;;5034817;28;20503;-85
2021/04/27 10:41:27;;;;;;;;;;;;;;;;;;;;;
2021/04/27 10:44:24;;;;;;;1999.90;999.90;;;15.70;1.00;;;;;;5043009;28;20507;-86
2021/04/27 10:47:24;;;;;;;1999.90;999.90;;;16.30;1.00;;;;;;5023537;28;20440;-85
2021/04/27 10:54:18;;;;;;;;;;;;;;;;;;;;;
2021/04/27 10:59:30;;;;;;;1999.90;999.90;;;16.60;1.00;;;;;;5045825;26;20467;-85
2021/04/27 11:02:20;;;;;;;1999.90;999.90;;;17.20;1.00;;;;;;5045332;28;20478;-85
2021/04/27 11:05:29;;;;;;;;;;;;;;;;;;;;;
2021/04/27 11:10:53;;;;;;;1999.90;999.90;;;18.00;1.00;;;;;;5415814;22;20821;-87
2021/04/27 11:14:12;;;;;;;1999.90;999.90;;;18.30;1.00;;;;;;5060501;28;20408;-85
2021/04/27 11:17:26;;;;;;;;;;;;;;;;;;;;;
2021/04/27 11:20:51;;;;;;;1999.90;999.90;;;18.50;1.00;;;;;;5024880;28;20494;-86
2021/04/27 11:23:48;;;;;;;1999.90;999.90;;;18.20;1.00;;;;;;5038843;28;20493;-84
2021/04/27 11:26:32;;;;;;;1999.90;999.90;;;17.60;1.00;;;;;;5055958;28;20941;-83
2021/04/27 11:29:11;;;;;;;1999.90;999.90;;;17.90;1.00;;;;;;5056409;28;20411;-84
2021/04/27 11:31:55;;;;;;;1999.90;999.90;;;18.10;1.00;;;;;;5057510;28;20403;-84
2021/04/27 11:34:53;;;;;;;1999.90;999.90;;;18.20;1.00;;;;;;5056857;28;20415;-83
2021/04/27 11:37:46;;;;;;;1999.90;999.90;;;18.20;1.00;;;;;;5049463;28;20791;-85
2021/04/27 11:41:27;;;;;;;1999.90;999.90;;;17.70;1.00;;;;;;5057515;28;20426;-84
2021/04/27 11:43:35;;;;;;;1999.90;999.90;;;18.20;1.00;;;;;;5047240;28;20443;-85
2021/04/27 11:46:05;;;;;;;1999.90;999.90;;;18.80;1.00;;;;;;5058955;28;20465;-85
2021/04/27 11:49:12;;;;;;;;;;;;;;;;;;;;;
2021/04/27 11:51:48;;;;;;;1999.90;999.90;;;19.40;1.00;;;;;;5053600;28;20506;-85
2021/04/27 11:54:22;;;;;;;1999.90;999.90;;;19.40;1.00;;;;;;5056047;28;20800;-83
2021/04/27 11:57:01;;;;;;;;;;;;;;;;;;;;;
2021/04/27 12:02:46;;;;;;;1999.90;999.90;;;19.60;1.00;;;;;;5060333;28;20410;-84
2021/04/27 12:05:15;;;;;;;1999.90;999.90;;;19.90;1.00;;;;;;5055355;28;20529;-84
2021/04/27 12:07:51;;;;;;;1999.90;999.90;;;20.20;1.00;;;;;;5054582;28;20423;-84
2021/04/27 12:10:19;;;;;;;1999.90;999.90;;;20.20;1.00;;;;;;5054831;28;20425;-83
2021/04/27 12:13:32;;;;;;;1999.90;999.90;;;20.10;1.00;;;;;;5056161;28;20431;-83
2021/04/27 12:16:32;;;;;;;1999.90;999.90;;;19.90;1.00;;;;;;5028672;28;20482;-83
2021/04/27 12:19:18;;;;;;;1999.90;999.90;;;20.10;1.00;;;;;;5051202;28;20408;-83
2021/04/27 12:22:04;;;;;;;1999.90;999.90;;;20.30;1.00;;;;;;5054894;28;20379;-84
2021/04/27 12:24:44;;;;;;;1999.90;999.90;;;20.30;1.00;;;;;;5052839;28;20446;-84
2021/04/27 12:27:26;;;;;;;1999.90;999.90;;;19.60;1.00;;;;;;5052765;28;20427;-84
2021/04/27 12:30:08;;;;;;;1999.90;999.90;;;19.00;1.00;;;;;;5052690;28;20402;-84
2021/04/27 12:32:39;;;;;;;1999.90;999.90;;;19.30;1.00;;;;;;5054037;28;20414;-84
2021/04/27 12:35:20;;;;;;;1999.90;999.90;;;19.30;1.00;;;;;;5052773;28;20425;-84
2021/04/27 12:38:01;;;;;;;1999.90;999.90;;;19.10;1.00;;;;;;5052519;28;20434;-83
2021/04/27 12:41:04;;;;;;;1999.90;999.90;;;19.50;1.00;;;;;;5052462;28;20775;-83
2021/04/27 12:44:04;;;;;;;1999.90;999.90;;;19.40;1.00;;;;;;5022536;28;20969;-84
2021/04/27 12:46:53;;;;;;;1999.90;999.90;;;19.00;1.00;;;;;;5048742;28;20419;-84
2021/04/27 12:49:43;;;;;;;1999.90;999.90;;;19.20;1.00;;;;;;5053122;28;20403;-84
2021/04/27 12:52:32;;;;;;;1999.90;999.90;;;19.40;1.00;;;;;;5052165;28;20960;-84
2021/04/27 12:55:45;;;;;;;1999.90;999.90;;;19.60;1.00;;;;;;5054250;28;20939;-83
2021/04/27 12:59:00;;;;;;;1999.90;999.90;;;18.50;1.00;;;;;;4982793;28;20438;-85
2021/04/27 13:01:26;;;;;;;1999.90;999.90;;;18.70;1.00;;;;;;5040844;28;20481;-83
2021/04/27 13:03:57;;;;;;;1999.90;999.90;;;18.60;1.00;;;;;;5056066;28;20454;-84
2021/04/27 13:06:23;;;;;;;1999.90;999.90;;;18.80;1.00;;;;;;5056693;28;20402;-84
2021/04/27 13:09:17;;;;;;;1999.90;999.90;;;19.20;1.00;;;;;;5055585;28;20528;-86
2021/04/27 13:12:16;;;;;;;1999.90;999.90;;;19.00;1.00;;;;;;5055787;28;20879;-86
2021/04/27 13:14:58;;;;;;;1999.90;999.90;;;19.10;1.00;;;;;;5055787;28;20801;-84
2021/04/27 13:18:09;;;;;;;1999.90;999.90;;;19.50;1.00;;;;;;5055787;28;20453;-83
2021/04/27 13:20:50;;;;;;;1999.90;999.90;;;19.10;1.00;;;;;;5020206;28;20442;-84
2021/04/27 13:23:17;;;;;;;1999.90;999.90;;;18.10;1.00;;;;;;5056008;28;20396;-84
2021/04/27 13:25:49;;;;;;;1999.90;999.90;;;17.80;1.00;;;;;;5054404;28;20752;-84
2021/04/27 13:28:32;;;;;;;1999.90;999.90;;;18.50;1.00;;;;;;5055223;28;20429;-83
2021/04/27 13:30:59;;;;;;;1999.90;999.90;;;19.00;1.00;;;;;;5052978;28;20767;-83
2021/04/27 13:33:50;;;;;;;1999.90;999.90;;;18.90;1.00;;;;;;5053968;28;20452;-84
2021/04/27 13:36:19;;;;;;;1999.90;999.90;;;18.50;1.00;;;;;;5062156;28;20439;-86
2021/04/27 13:38:49;;;;;;;1999.90;999.90;;;18.70;1.00;;;;;;5058159;28;20407;-84
2021/04/27 13:41:22;;;;;;;1999.90;999.90;;;18.80;1.00;;;;;;5058121;28;20930;-86
2021/04/27 13:43:49;;;;;;;1999.90;999.90;;;18.70;1.00;;;;;;5058285;28;20433;-85
2021/04/27 13:46:20;;;;;;;1999.90;999.90;;;18.70;1.00;;;;;;5056049;28;20415;-86
2021/04/27 13:48:52;;;;;;;1999.90;999.90;;;18.80;1.00;;;;;;5053943;28;20406;-85
2021/04/27 13:51:18;;;;;;;1999.90;999.90;;;18.80;1.00;;;;;;5052391;28;20414;-85
2021/04/27 13:53:46;;;;;;;1999.90;999.90;;;18.70;1.00;;;;;;5053903;28;20403;-85
2021/04/27 13:56:16;;;;;;;1999.90;999.90;;;18.70;1.00;;;;;;5055564;28;20394;-85
2021/04/27 13:58:48;;;;;;;1999.90;999.90;;;18.70;1.00;;;;;;5056887;28;20446;-85
2021/04/27 14:01:16;;;;;;;1999.90;999.90;;;18.70;1.00;;;;;;5057478;28;20399;-84
2021/04/27 14:03:53;;;;;;;1999.90;999.90;;;18.90;1.00;;;;;;5062709;28;20443;-87
2021/04/27 14:06:22;;;;;;;1999.90;999.90;;;18.10;1.00;;;;;;5065460;28;20383;-87
2021/04/27 14:08:48;;;;;;;1999.90;999.90;;;18.20;1.00;;;;;;5066703;28;20414;-87
2021/04/27 14:11:13;;;;;;;1999.90;999.90;;;18.30;1.00;;;;;;5065511;28;20411;-87
2021/04/27 14:13:39;;;;;;;1999.90;999.90;;;18.30;1.00;;;;;;5065048;28;20240;-87
2021/04/27 14:16:11;;;;;;;1999.90;999.90;;;18.70;1.00;;;;;;5065130;28;20169;-87
2021/04/27 14:18:48;;;;;;;1999.90;999.90;;;19.00;1.00;;;;;;5066523;28;20181;-86
2021/04/27 14:21:14;;;;;;;1999.90;999.90;;;19.20;1.00;;;;;;5067974;28;20474;-85
2021/04/27 14:23:40;;;;;;;1999.90;999.90;;;18.90;1.00;;;;;;5066747;28;20485;-86
2021/04/27 14:26:21;;;;;;;1999.90;999.90;;;18.50;1.00;;;;;;5064373;28;20180;-88
2021/04/27 14:32:12;;;;;;;1999.90;999.90;;;19.10;1.00;;;;;;5061725;28;20435;-86
2021/04/27 14:34:42;;;;;;;1999.90;999.90;;;19.30;1.00;;;;;;5066822;28;20727;-87
2021/04/27 14:37:08;;;;;;;1999.90;999.90;;;19.10;1.00;;;;;;5066588;28;20427;-88
2021/04/27 14:39:37;;;;;;;1999.90;999.90;;;19.10;1.00;;;;;;5066758;28;20387;-88
2021/04/27 14:42:04;;;;;;;1999.90;999.90;;;19.20;1.00;;;;;;5066595;28;20926;-88
2021/04/27 14:44:33;;;;;;;1999.90;999.90;;;19.20;1.00;;;;;;5067130;28;20462;-88
2021/04/27 14:47:02;;;;;;;1999.90;999.90;;;19.10;1.00;;;;;;5065950;28;20495;-87
2021/04/27 14:49:34;;;;;;;1999.90;999.90;;;18.80;1.00;;;;;;5067341;28;20430;-88
2021/04/27 14:52:00;;;;;;;1999.90;999.90;;;18.60;1.00;;;;;;5065805;28;20399;-88
2021/04/27 14:55:06;;;;;;;1999.90;999.90;;;18.90;1.00;;;;;;5064110;28;20407;-87
2021/04/27 14:58:02;;;;;;;1999.90;999.90;;;19.00;1.00;;;;;;5065707;28;20422;-88
2021/04/27 15:00:38;;;;;;;1999.90;999.90;;;18.50;1.00;;;;;;5062960;28;20941;-88